Margate, United Kingdom
Current Conditions -  °F | °C
As of 5:50 PM on Thursday 29 Jan 2015 (Local Time) from EGMC Reporting Station
Scattered Clouds Scattered Clouds  
Wind Chill: 28°   Ceiling: Unl
Heat Index: 36°   Visibility: 6mi
Dew Point: 30°   Wind: 10mph
Humidity: 81%   Direction: 300°WNW
Pressure: 28.82"   Gusts: NA
Location:  51.36°N, 1.36°E
Report Text: EGMC 291750Z 30009KT 260V320 9999 SCT023 02/M01 Q0976
Loading
Personal Weather Stations






























Interactive Weather Map New forecast layout! Learn more

10-Day Weather Forecast

Advertisements
Track Severe Weather on mobile